Time;durP1;ratioP1;P1;durP2;ratioP2;P2;SDS_P1;SDS_P2;PMS_P1;PMS_P2;Temp;Humidity;BMP_temperature;BMP_pressure;BME280_temperature;BME280_humidity;BME280_pressure;Samples;Min_cycle;Max_cycle;Signal;HPM_P1;HPM_P2
2022/12/29 00:02:14;;;;;;;2.83;1.60;;;4.30;99.90;;;;;;5019852;28;20138;-82
2022/12/29 00:04:40;;;;;;;2.90;1.70;;;4.40;99.90;;;;;;5019061;28;20057;-82
2022/12/29 00:07:06;;;;;;;3.80;1.70;;;4.40;99.90;;;;;;5018164;28;20107;-83
2022/12/29 00:09:33;;;;;;;2.93;1.50;;;4.50;99.90;;;;;;5018136;28;20033;-83
2022/12/29 00:12:00;;;;;;;2.93;1.40;;;4.50;99.90;;;;;;5021054;28;20026;-82
2022/12/29 00:17:10;;;;;;;2.93;1.50;;;4.60;99.90;;;;;;5021632;28;20037;-82
2022/12/29 00:36:17;;;;;;;2.00;1.37;;;4.80;99.90;;;;;;5022314;28;20051;-83
2022/12/29 00:44:27;;;;;;;2.17;1.60;;;4.70;99.90;;;;;;5020401;28;20590;-83
2022/12/29 00:46:53;;;;;;;4.13;2.43;;;4.70;99.90;;;;;;5022084;28;20025;-82
2022/12/29 00:49:30;;;;;;;2.77;1.37;;;4.70;99.90;;;;;;5022318;28;20033;-83
2022/12/29 00:52:05;;;;;;;2.43;1.50;;;4.70;99.90;;;;;;5023461;28;20392;-82
2022/12/29 00:54:35;;;;;;;2.13;1.40;;;4.70;99.90;;;;;;5017330;28;20041;-83
2022/12/29 00:57:02;;;;;;;1.80;1.33;;;4.70;99.90;;;;;;5024576;28;20033;-82
2022/12/29 00:59:28;;;;;;;4.43;1.60;;;4.60;99.90;;;;;;5022381;28;20033;-83
2022/12/29 01:01:54;;;;;;;2.47;1.50;;;4.60;99.90;;;;;;5021902;28;20022;-82
2022/12/29 01:04:22;;;;;;;2.50;1.40;;;4.60;99.90;;;;;;5022108;28;20018;-82
2022/12/29 01:06:48;;;;;;;2.60;1.60;;;4.60;99.90;;;;;;5022285;28;20040;-83
2022/12/29 01:12:05;;;;;;;1.77;1.30;;;4.60;99.90;;;;;;5010283;28;20225;-83
2022/12/29 01:14:31;;;;;;;2.17;1.33;;;4.60;99.90;;;;;;5019876;28;20045;-83
2022/12/29 01:16:57;;;;;;;3.57;1.40;;;4.60;99.90;;;;;;5022015;28;20053;-82
2022/12/29 01:19:23;;;;;;;1.67;1.30;;;4.50;99.90;;;;;;5016124;28;20046;-82
2022/12/29 01:21:49;;;;;;;2.30;1.47;;;4.50;99.90;;;;;;5019930;28;20017;-82
2022/12/29 01:24:17;;;;;;;1.60;1.30;;;4.50;99.90;;;;;;5018893;28;20479;-82
2022/12/29 01:26:43;;;;;;;2.37;1.40;;;4.50;99.90;;;;;;5021949;28;20014;-83
2022/12/29 01:29:09;;;;;;;1.73;1.20;;;4.40;99.90;;;;;;5020443;28;20025;-82
2022/12/29 01:31:34;;;;;;;2.17;1.30;;;4.40;99.90;;;;;;5022400;28;20021;-83
2022/12/29 01:34:00;;;;;;;3.93;1.30;;;4.40;99.90;;;;;;5020231;28;20029;-83
2022/12/29 01:36:26;;;;;;;3.00;1.57;;;4.40;99.90;;;;;;5017981;28;20534;-83
2022/12/29 01:38:51;;;;;;;3.23;1.70;;;4.40;99.90;;;;;;5018194;28;20378;-82
2022/12/29 01:41:17;;;;;;;2.13;1.20;;;4.30;99.90;;;;;;5020800;28;20423;-82
2022/12/29 01:43:50;;;;;;;2.13;1.30;;;4.30;99.90;;;;;;5028393;28;20025;-83
2022/12/29 01:46:26;;;;;;;2.70;1.30;;;4.30;99.90;;;;;;5018474;28;20021;-83
2022/12/29 01:49:07;;;;;;;2.80;1.53;;;4.30;99.90;;;;;;5019521;28;20112;-83
2022/12/29 01:51:37;;;;;;;2.07;1.37;;;4.30;99.90;;;;;;5021929;28;20446;-83
2022/12/29 01:54:07;;;;;;;2.23;1.40;;;4.30;99.90;;;;;;5019876;28;20026;-83
2022/12/29 01:56:33;;;;;;;2.73;1.43;;;4.30;99.90;;;;;;5027068;28;20046;-83
2022/12/29 01:59:06;;;;;;;1.70;1.40;;;4.30;99.90;;;;;;5021930;28;20029;-83
2022/12/29 02:01:32;;;;;;;2.57;1.50;;;4.30;99.90;;;;;;5023359;28;20021;-83
2022/12/29 02:03:58;;;;;;;3.00;1.67;;;4.40;99.90;;;;;;5020649;28;20148;-83
2022/12/29 02:06:38;;;;;;;3.13;1.60;;;4.40;99.90;;;;;;5017352;28;20018;-83
2022/12/29 02:09:03;;;;;;;3.43;1.40;;;4.50;99.90;;;;;;5016688;28;20125;-83
2022/12/29 02:11:30;;;;;;;2.47;1.37;;;4.50;99.90;;;;;;5017701;28;20108;-83
2022/12/29 02:13:56;;;;;;;2.10;1.20;;;4.60;99.90;;;;;;5023719;28;20044;-83
2022/12/29 02:16:28;;;;;;;1.60;1.20;;;4.60;99.90;;;;;;5021862;28;20076;-82
2022/12/29 02:19:23;;;;;;;2.97;1.23;;;4.70;99.90;;;;;;5020740;28;20049;-83
2022/12/29 02:22:23;;;;;;;2.22;1.40;;;4.70;99.90;;;;;;5020762;28;20109;-83
2022/12/29 02:25:09;;;;;;;1.70;1.10;;;4.80;99.90;;;;;;5020455;28;20029;-83
2022/12/29 02:27:50;;;;;;;1.90;1.20;;;4.80;99.90;;;;;;5019154;28;20031;-83
2022/12/29 02:30:28;;;;;;;1.93;1.40;;;4.90;99.90;;;;;;5021342;28;20063;-83
2022/12/29 02:33:33;;;;;;;2.07;1.30;;;4.90;99.90;;;;;;5024204;28;20022;-83
2022/12/29 02:36:33;;;;;;;1.95;1.25;;;4.90;99.90;;;;;;5019971;28;20399;-83
2022/12/29 02:39:10;;;;;;;1.90;1.27;;;5.00;99.90;;;;;;5009404;28;20045;-83
2022/12/29 02:41:52;;;;;;;2.80;1.30;;;5.00;99.90;;;;;;5019755;28;20064;-83
2022/12/29 02:44:42;;;;;;;2.17;1.20;;;5.10;99.90;;;;;;5025664;28;20017;-83
2022/12/29 02:47:19;;;;;;;1.87;1.30;;;5.10;99.90;;;;;;5024120;28;20029;-83
2022/12/29 02:50:03;;;;;;;2.23;1.20;;;5.10;99.90;;;;;;5019185;28;20051;-83
2022/12/29 02:52:36;;;;;;;3.53;1.40;;;5.10;99.90;;;;;;5024459;28;20079;-83
2022/12/29 02:55:02;;;;;;;3.17;1.30;;;5.10;99.90;;;;;;5020168;28;20104;-83
2022/12/29 02:57:31;;;;;;;2.00;1.40;;;5.10;99.90;;;;;;5018320;28;20113;-83
2022/12/29 03:00:11;;;;;;;1.97;1.30;;;5.10;99.90;;;;;;5027092;28;20040;-83
2022/12/29 03:02:45;;;;;;;2.00;1.37;;;5.10;99.90;;;;;;5023220;28;20028;-83
2022/12/29 03:05:20;;;;;;;1.83;1.27;;;5.20;99.90;;;;;;5022020;28;20442;-83
2022/12/29 03:07:55;;;;;;;1.83;1.30;;;5.10;99.90;;;;;;5020760;28;20086;-83
2022/12/29 03:10:34;;;;;;;1.30;1.20;;;5.10;99.90;;;;;;5021225;28;20051;-83
2022/12/29 03:16:28;;;;;;;1.77;1.20;;;5.20;99.90;;;;;;5019650;28;20036;-83
2022/12/29 03:19:10;;;;;;;1.90;1.30;;;5.30;99.90;;;;;;5021266;28;20107;-83
2022/12/29 03:24:49;;;;;;;2.80;1.30;;;5.40;99.90;;;;;;5028252;28;20040;-83
2022/12/29 03:27:19;;;;;;;1.77;1.20;;;5.40;99.90;;;;;;5020780;28;20028;-82
2022/12/29 03:29:54;;;;;;;1.57;1.20;;;5.50;99.90;;;;;;5023150;28;20033;-82
2022/12/29 03:32:28;;;;;;;2.75;1.20;;;5.50;99.90;;;;;;5021002;28;20018;-83
2022/12/29 03:34:54;;;;;;;1.40;0.93;;;5.60;99.90;;;;;;5020851;28;20061;-83
2022/12/29 03:37:29;;;;;;;5.33;1.30;;;5.60;99.90;;;;;;5022320;28;20018;-83
2022/12/29 03:39:56;;;;;;;2.50;1.48;;;5.70;99.90;;;;;;5022555;28;20474;-83
2022/12/29 03:42:25;;;;;;;3.30;1.30;;;5.80;99.90;;;;;;5020856;28;20096;-83
2022/12/29 03:44:55;;;;;;;1.70;1.20;;;5.80;99.90;;;;;;5024783;28;20026;-83
2022/12/29 03:47:21;;;;;;;1.07;0.97;;;5.80;99.90;;;;;;5023924;28;20485;-83
2022/12/29 03:49:47;;;;;;;2.00;1.30;;;5.90;99.90;;;;;;5022678;28;20108;-83
2022/12/29 03:52:12;;;;;;;1.37;1.00;;;5.90;99.90;;;;;;5022327;28;20026;-82
2022/12/29 03:54:38;;;;;;;3.80;1.20;;;5.90;99.90;;;;;;5024221;28;20064;-82
2022/12/29 03:57:03;;;;;;;3.40;1.33;;;6.00;99.90;;;;;;5021883;28;20041;-82
2022/12/29 03:59:29;;;;;;;1.93;1.23;;;6.00;99.90;;;;;;5018127;28;20037;-82
2022/12/29 04:01:54;;;;;;;1.13;1.03;;;6.00;99.90;;;;;;5022656;28;20029;-82
2022/12/29 04:04:20;;;;;;;1.67;1.00;;;6.10;99.90;;;;;;5022330;28;20383;-82
2022/12/29 04:06:46;;;;;;;1.53;1.10;;;6.10;99.90;;;;;;5023206;28;20029;-83
2022/12/29 04:09:11;;;;;;;2.97;1.20;;;6.20;99.90;;;;;;5026293;28;20029;-83
2022/12/29 04:11:37;;;;;;;7.33;1.23;;;6.20;99.90;;;;;;5021397;28;20101;-83
2022/12/29 04:14:02;;;;;;;2.60;1.13;;;6.30;99.90;;;;;;5022891;28;20030;-83
2022/12/29 04:16:28;;;;;;;1.83;1.10;;;6.30;99.90;;;;;;5022400;28;20414;-83
2022/12/29 04:18:53;;;;;;;2.63;1.40;;;6.30;99.90;;;;;;5024884;28;20605;-83
2022/12/29 04:21:19;;;;;;;2.50;1.30;;;6.30;99.90;;;;;;5017131;28;20026;-83
2022/12/29 04:23:44;;;;;;;1.97;1.30;;;6.30;99.90;;;;;;5018020;28;20026;-83
2022/12/29 04:26:10;;;;;;;2.17;1.30;;;6.30;99.90;;;;;;5019788;28;20033;-83
2022/12/29 04:28:37;;;;;;;1.73;1.27;;;6.30;99.90;;;;;;5021678;28;20055;-83
2022/12/29 04:31:04;;;;;;;1.40;1.20;;;6.30;99.90;;;;;;5026212;28;20391;-82
2022/12/29 04:33:29;;;;;;;2.20;1.30;;;6.30;99.90;;;;;;5023105;28;20427;-83
2022/12/29 04:35:55;;;;;;;1.90;1.20;;;6.30;99.90;;;;;;5023295;28;20108;-83
2022/12/29 04:38:23;;;;;;;2.20;1.20;;;6.30;99.90;;;;;;5022889;28;20049;-83
2022/12/29 04:40:49;;;;;;;1.57;1.13;;;6.30;99.90;;;;;;5022825;28;20919;-83
2022/12/29 04:43:15;;;;;;;2.03;1.20;;;6.30;99.90;;;;;;5020733;28;20029;-83
2022/12/29 04:45:47;;;;;;;2.00;1.30;;;6.40;99.90;;;;;;5020058;28;20013;-83
2022/12/29 04:48:13;;;;;;;2.97;1.30;;;6.30;99.90;;;;;;5019839;28;20026;-83
2022/12/29 04:50:40;;;;;;;2.97;1.20;;;6.30;99.90;;;;;;5019564;28;20021;-82
2022/12/29 04:53:06;;;;;;;2.10;1.30;;;6.30;99.90;;;;;;5019862;28;20044;-83
2022/12/29 04:55:32;;;;;;;2.03;1.30;;;6.30;99.90;;;;;;5018462;28;20022;-82
2022/12/29 04:57:58;;;;;;;2.03;1.20;;;6.30;99.90;;;;;;5020259;28;20036;-83
2022/12/29 05:00:23;;;;;;;2.27;1.20;;;6.30;99.90;;;;;;5020840;28;20379;-82
2022/12/29 05:02:49;;;;;;;1.67;1.10;;;6.30;99.90;;;;;;5020170;28;20022;-83
2022/12/29 05:05:15;;;;;;;1.87;1.13;;;6.30;99.90;;;;;;5021315;28;20057;-83
2022/12/29 05:07:40;;;;;;;1.70;1.20;;;6.30;99.90;;;;;;5021074;28;20018;-82
2022/12/29 05:10:07;;;;;;;2.23;1.23;;;6.20;99.90;;;;;;5021703;28;20034;-82
2022/12/29 05:12:34;;;;;;;2.00;1.10;;;6.20;99.90;;;;;;5018314;28;20061;-82
2022/12/29 05:15:02;;;;;;;2.77;1.33;;;6.30;99.90;;;;;;5023109;28;20029;-82
2022/12/29 05:17:27;;;;;;;3.10;1.20;;;6.30;99.90;;;;;;5019769;28;20048;-82
2022/12/29 05:19:53;;;;;;;1.90;1.40;;;6.20;99.90;;;;;;5020786;28;20050;-82
2022/12/29 05:22:18;;;;;;;1.83;1.00;;;6.30;99.90;;;;;;5022532;28;20025;-83
2022/12/29 05:24:44;;;;;;;5.13;1.70;;;6.30;99.90;;;;;;5018826;28;20021;-83
2022/12/29 05:27:09;;;;;;;1.60;1.10;;;6.30;99.90;;;;;;5020079;28;20113;-82
2022/12/29 05:29:35;;;;;;;3.37;1.20;;;6.30;99.90;;;;;;5020778;28;20083;-83
2022/12/29 05:32:00;;;;;;;2.27;1.13;;;6.30;99.90;;;;;;5023469;28;20071;-82
2022/12/29 05:34:26;;;;;;;2.37;1.20;;;6.30;99.90;;;;;;5018833;28;20055;-82
2022/12/29 05:36:51;;;;;;;2.50;1.23;;;6.30;99.90;;;;;;5017747;28;20025;-83
2022/12/29 05:39:17;;;;;;;2.30;1.30;;;6.30;99.90;;;;;;5022336;28;20390;-83
2022/12/29 05:41:42;;;;;;;1.60;1.10;;;6.30;99.90;;;;;;5019991;28;20140;-83
2022/12/29 05:44:10;;;;;;;3.03;1.60;;;6.30;99.90;;;;;;5020240;28;20029;-84
2022/12/29 05:46:35;;;;;;;2.83;1.23;;;6.40;99.90;;;;;;5016146;28;20189;-84
2022/12/29 05:49:01;;;;;;;4.57;1.30;;;6.40;99.90;;;;;;5022369;28;20117;-84
2022/12/29 05:51:26;;;;;;;3.30;1.10;;;6.40;99.90;;;;;;5024095;28;20033;-85
2022/12/29 05:53:52;;;;;;;2.23;1.13;;;6.50;99.90;;;;;;5024519;28;20032;-85
2022/12/29 05:56:18;;;;;;;4.17;1.47;;;6.40;99.90;;;;;;5019518;28;20072;-84
2022/12/29 05:58:43;;;;;;;2.13;1.27;;;6.40;99.90;;;;;;5025731;28;20025;-84
2022/12/29 06:01:09;;;;;;;1.67;1.20;;;6.40;99.90;;;;;;5021413;28;20097;-95
2022/12/29 06:03:35;;;;;;;1.43;1.03;;;6.40;99.90;;;;;;5014792;28;20020;-83
2022/12/29 06:06:00;;;;;;;2.10;1.33;;;6.40;99.90;;;;;;5020506;28;20041;-84
2022/12/29 06:08:26;;;;;;;1.77;1.20;;;6.40;99.90;;;;;;5018903;28;20017;-90
2022/12/29 06:10:51;;;;;;;4.20;1.30;;;6.40;99.90;;;;;;5027795;28;20025;-70
2022/12/29 06:13:17;;;;;;;3.43;1.30;;;6.30;99.90;;;;;;5027471;28;20030;-79
2022/12/29 06:15:42;;;;;;;1.90;1.07;;;6.40;99.90;;;;;;5021951;28;20029;-90
2022/12/29 06:18:08;;;;;;;2.33;1.20;;;6.40;99.90;;;;;;5016996;28;20041;-82
2022/12/29 06:20:34;;;;;;;1.70;1.00;;;6.40;99.90;;;;;;5023807;28;20041;-82
2022/12/29 06:23:00;;;;;;;1.60;1.40;;;6.40;99.90;;;;;;5018720;28;20452;-82
2022/12/29 06:25:25;;;;;;;1.53;1.00;;;6.40;99.90;;;;;;5023179;28;20120;-82
2022/12/29 06:27:51;;;;;;;2.30;1.20;;;6.40;99.90;;;;;;5025369;28;20043;-82
2022/12/29 06:30:17;;;;;;;2.47;1.20;;;6.40;99.90;;;;;;5014250;28;20038;-84
2022/12/29 06:32:42;;;;;;;3.03;1.00;;;6.40;99.90;;;;;;5022833;28;20033;-84
2022/12/29 06:35:09;;;;;;;1.40;1.00;;;6.40;99.90;;;;;;5015291;28;20049;-84
2022/12/29 06:37:34;;;;;;;1.77;1.10;;;6.40;99.90;;;;;;5018644;28;20022;-84
2022/12/29 06:40:00;;;;;;;2.10;1.37;;;6.40;99.90;;;;;;5014783;28;20474;-84
2022/12/29 06:42:25;;;;;;;2.60;1.30;;;6.50;99.90;;;;;;5017537;28;20036;-84
2022/12/29 06:44:52;;;;;;;1.97;1.10;;;6.50;99.90;;;;;;5017256;28;20044;-84
2022/12/29 06:47:18;;;;;;;2.23;1.10;;;6.50;99.90;;;;;;5014145;28;20064;-84
2022/12/29 06:49:43;;;;;;;2.33;1.10;;;6.50;99.90;;;;;;5017474;28;20366;-85
2022/12/29 06:52:09;;;;;;;2.10;1.30;;;6.60;99.90;;;;;;5019180;28;20037;-84
2022/12/29 06:54:34;;;;;;;3.33;1.40;;;6.60;99.90;;;;;;5022149;28;20080;-84
2022/12/29 06:57:02;;;;;;;2.00;1.10;;;6.60;99.90;;;;;;5017423;28;20022;-84
2022/12/29 06:59:28;;;;;;;1.50;1.10;;;6.70;99.90;;;;;;5015116;28;20026;-85
2022/12/29 07:01:54;;;;;;;3.23;1.20;;;6.70;99.90;;;;;;5013044;28;20477;-84
2022/12/29 07:04:19;;;;;;;3.50;1.30;;;6.70;99.90;;;;;;5020238;28;20029;-85
2022/12/29 07:06:45;;;;;;;2.10;1.33;;;6.70;99.90;;;;;;5019258;28;20029;-84
2022/12/29 07:09:10;;;;;;;1.90;1.23;;;6.70;99.90;;;;;;5018472;28;20400;-85
2022/12/29 07:11:36;;;;;;;2.17;1.30;;;6.70;99.90;;;;;;5020815;28;20034;-85
2022/12/29 07:14:02;;;;;;;4.10;1.70;;;6.80;99.90;;;;;;5019152;28;20055;-84
2022/12/29 07:16:29;;;;;;;2.97;1.20;;;6.90;99.90;;;;;;5015655;28;20071;-85
2022/12/29 07:18:55;;;;;;;2.53;1.33;;;7.00;99.90;;;;;;5019173;28;20046;-85
2022/12/29 07:21:20;;;;;;;2.07;1.30;;;7.10;99.90;;;;;;5018790;28;20363;-85
2022/12/29 07:23:46;;;;;;;3.27;1.37;;;7.10;99.90;;;;;;5017154;28;20017;-84
2022/12/29 07:26:14;;;;;;;2.77;1.40;;;7.10;99.90;;;;;;5021722;28;20026;-85
2022/12/29 07:28:41;;;;;;;3.57;1.40;;;7.10;99.90;;;;;;5019745;28;20356;-84
2022/12/29 07:31:14;;;;;;;4.93;1.40;;;7.10;99.90;;;;;;5019390;28;20029;-84
2022/12/29 07:33:40;;;;;;;2.50;1.17;;;7.00;99.90;;;;;;5020808;28;20033;-85
2022/12/29 07:36:06;;;;;;;4.27;1.30;;;7.00;99.90;;;;;;5037146;28;20160;-84
2022/12/29 07:38:31;;;;;;;3.87;1.37;;;7.00;99.90;;;;;;5027135;28;20093;-84
2022/12/29 07:40:58;;;;;;;2.80;1.37;;;7.00;99.90;;;;;;5023222;28;20022;-84
2022/12/29 07:43:23;;;;;;;3.67;1.43;;;7.00;99.90;;;;;;5017630;28;20450;-84
2022/12/29 07:45:49;;;;;;;1.70;1.30;;;7.00;99.90;;;;;;5020164;28;20053;-84
2022/12/29 07:48:14;;;;;;;3.23;1.30;;;7.10;99.90;;;;;;5022253;28;20056;-84
2022/12/29 07:50:40;;;;;;;2.17;1.20;;;7.10;99.90;;;;;;5025360;28;20033;-84
2022/12/29 07:53:05;;;;;;;3.27;1.10;;;7.20;99.90;;;;;;5019264;28;20036;-80
2022/12/29 07:55:31;;;;;;;2.03;1.13;;;7.20;99.90;;;;;;5026313;28;20022;-80
2022/12/29 07:57:57;;;;;;;4.17;1.63;;;7.30;99.90;;;;;;5018870;28;20022;-81
2022/12/29 08:00:22;;;;;;;2.63;1.40;;;7.40;99.90;;;;;;5020466;28;20168;-80
2022/12/29 08:02:49;;;;;;;2.63;1.47;;;7.60;99.90;;;;;;5024289;28;20021;-80
2022/12/29 08:05:15;;;;;;;3.30;1.20;;;7.60;99.90;;;;;;5029483;28;20096;-80
2022/12/29 08:07:43;;;;;;;2.23;1.20;;;7.70;99.90;;;;;;5023712;28;20022;-80
2022/12/29 08:10:09;;;;;;;4.87;2.50;;;7.70;99.90;;;;;;5021709;28;20026;-80
2022/12/29 08:12:34;;;;;;;3.67;1.30;;;7.80;99.90;;;;;;5024591;28;20545;-81
2022/12/29 08:15:00;;;;;;;2.43;1.30;;;7.80;99.90;;;;;;5022563;28;20076;-80
2022/12/29 08:17:25;;;;;;;3.60;1.20;;;7.90;99.90;;;;;;5027539;28;20033;-80
2022/12/29 08:19:51;;;;;;;2.30;1.53;;;7.90;99.90;;;;;;5023772;28;20091;-81
2022/12/29 08:22:16;;;;;;;4.47;1.60;;;8.00;99.90;;;;;;5027761;28;20064;-81
2022/12/29 08:24:42;;;;;;;7.87;2.90;;;8.10;99.90;;;;;;5023655;28;20028;-81
2022/12/29 08:27:07;;;;;;;6.03;1.60;;;8.20;99.90;;;;;;5018712;28;20028;-81
2022/12/29 08:29:33;;;;;;;5.53;1.20;;;8.20;99.90;;;;;;5023634;28;20044;-80
2022/12/29 08:31:58;;;;;;;1.73;1.23;;;8.40;99.90;;;;;;5022441;28;20029;-80
2022/12/29 08:34:24;;;;;;;4.93;1.30;;;8.50;99.90;;;;;;5020213;28;20096;-80
2022/12/29 08:36:49;;;;;;;2.53;1.40;;;8.50;99.90;;;;;;5024187;28;20034;-80
2022/12/29 08:39:15;;;;;;;4.43;1.43;;;8.50;99.90;;;;;;5024714;28;20030;-80
2022/12/29 08:41:41;;;;;;;2.23;1.40;;;8.50;99.90;;;;;;5019699;28;20027;-80
2022/12/29 08:44:07;;;;;;;3.27;1.23;;;8.50;99.90;;;;;;5023909;28;20051;-80
2022/12/29 08:46:33;;;;;;;4.63;1.30;;;8.40;99.90;;;;;;5025903;28;20025;-80
2022/12/29 08:48:58;;;;;;;5.80;1.60;;;8.40;99.90;;;;;;5023101;28;20029;-80
2022/12/29 08:51:24;;;;;;;7.97;1.60;;;8.40;99.90;;;;;;5021470;28;20017;-80
2022/12/29 08:53:50;;;;;;;6.50;1.60;;;8.30;99.90;;;;;;5019375;28;20056;-80
2022/12/29 08:56:16;;;;;;;4.57;1.60;;;8.30;99.90;;;;;;5018883;28;20053;-80
2022/12/29 08:58:41;;;;;;;2.83;1.60;;;8.30;99.90;;;;;;5019959;28;20033;-83
2022/12/29 09:01:07;;;;;;;4.43;2.00;;;8.30;99.90;;;;;;5017921;28;20123;-82
2022/12/29 09:03:33;;;;;;;4.30;1.73;;;8.30;99.90;;;;;;5019174;28;20079;-82
2022/12/29 09:05:58;;;;;;;3.93;1.60;;;8.40;99.90;;;;;;5018890;28;20022;-82
2022/12/29 09:08:24;;;;;;;2.33;1.47;;;8.50;99.90;;;;;;5018357;28;20036;-82
2022/12/29 09:10:50;;;;;;;4.20;1.70;;;8.60;99.90;;;;;;5022650;28;20470;-83
2022/12/29 09:13:16;;;;;;;2.97;1.50;;;8.80;99.90;;;;;;5018577;28;20053;-83
2022/12/29 09:15:42;;;;;;;5.20;2.07;;;8.90;99.90;;;;;;5021331;28;20034;-82
2022/12/29 09:18:09;;;;;;;2.23;1.20;;;9.10;99.90;;;;;;5018524;28;20881;-83
2022/12/29 09:20:35;;;;;;;8.63;1.27;;;9.20;99.90;;;;;;5017448;28;20022;-83
2022/12/29 09:23:01;;;;;;;3.70;1.37;;;9.40;99.90;;;;;;5016051;28;20029;-83
2022/12/29 09:25:27;;;;;;;2.77;1.20;;;9.60;99.90;;;;;;5017746;28;20492;-80
2022/12/29 09:27:53;;;;;;;2.67;1.40;;;9.70;99.90;;;;;;5023934;28;20026;-80
2022/12/29 09:30:20;;;;;;;2.37;1.10;;;9.80;99.90;;;;;;5019005;28;20700;-80
2022/12/29 09:32:47;;;;;;;2.27;1.30;;;9.90;99.90;;;;;;5023549;28;20494;-80
2022/12/29 09:35:13;;;;;;;3.30;1.93;;;10.00;99.90;;;;;;5020726;28;20040;-80
2022/12/29 09:37:39;;;;;;;4.00;1.40;;;10.00;99.90;;;;;;5019168;28;20893;-80
2022/12/29 09:40:06;;;;;;;3.90;1.33;;;10.10;99.90;;;;;;5021674;28;20032;-80
2022/12/29 09:42:40;;;;;;;3.40;1.40;;;10.20;99.90;;;;;;5019156;28;20013;-80
2022/12/29 09:45:37;;;;;;;4.03;1.30;;;10.20;99.90;;;;;;5019863;28;20026;-80
2022/12/29 09:48:11;;;;;;;2.53;1.20;;;10.20;99.90;;;;;;5022206;28;20437;-80
2022/12/29 09:50:38;;;;;;;2.53;1.20;;;10.20;99.90;;;;;;5017298;28;20434;-80
2022/12/29 09:53:25;;;;;;;2.13;1.20;;;10.10;99.90;;;;;;5021352;28;20049;-80
2022/12/29 09:55:56;;;;;;;4.60;1.80;;;10.10;99.90;;;;;;5017926;28;20471;-80
2022/12/29 09:58:29;;;;;;;3.73;1.33;;;10.10;99.90;;;;;;5020753;28;20360;-80
2022/12/29 10:01:21;;;;;;;1.43;1.07;;;10.10;99.90;;;;;;5020204;28;20036;-80
2022/12/29 10:03:50;;;;;;;2.83;1.20;;;10.10;99.90;;;;;;5016505;28;20060;-80
2022/12/29 10:06:31;;;;;;;2.10;1.20;;;10.10;99.90;;;;;;5015584;28;20044;-80
2022/12/29 10:09:19;;;;;;;6.53;1.40;;;10.10;99.90;;;;;;5019450;28;20036;-80
2022/12/29 10:12:11;;;;;;;2.90;1.40;;;10.10;99.90;;;;;;5014784;28;20026;-80
2022/12/29 10:14:48;;;;;;;2.07;1.23;;;10.20;99.90;;;;;;5019697;28;21332;-80
2022/12/29 10:17:57;;;;;;;2.03;1.33;;;10.20;99.90;;;;;;5020114;28;20071;-80
2022/12/29 10:20:38;;;;;;;3.67;1.10;;;10.20;99.90;;;;;;5017389;28;20042;-80
2022/12/29 10:23:38;;;;;;;4.13;1.20;;;10.20;99.90;;;;;;5018931;28;20022;-80
2022/12/29 10:26:09;;;;;;;3.37;1.50;;;10.10;99.90;;;;;;5021483;28;20040;-80
2022/12/29 10:28:54;;;;;;;3.13;1.20;;;10.10;99.90;;;;;;5021447;28;20022;-80
2022/12/29 10:31:36;;;;;;;6.70;1.40;;;10.10;99.90;;;;;;5031489;28;20109;-80
2022/12/29 10:34:07;;;;;;;1.87;1.00;;;10.20;99.90;;;;;;5017216;28;20479;-80
2022/12/29 10:36:39;;;;;;;5.60;1.27;;;10.20;99.90;;;;;;5018192;28;20025;-80
2022/12/29 10:39:15;;;;;;;2.63;1.30;;;10.30;99.90;;;;;;5021397;28;20093;-80
2022/12/29 10:41:52;;;;;;;2.27;1.37;;;10.30;99.90;;;;;;5020941;28;20028;-80
2022/12/29 10:44:19;;;;;;;3.07;1.40;;;10.40;99.90;;;;;;5018325;28;20049;-80
2022/12/29 10:47:04;;;;;;;6.63;1.30;;;10.40;99.90;;;;;;5021396;28;20033;-80
2022/12/29 10:49:31;;;;;;;1.67;1.05;;;10.50;99.90;;;;;;5034497;28;20164;-80
2022/12/29 10:52:01;;;;;;;2.13;1.20;;;10.50;99.90;;;;;;5018965;28;20045;-80
2022/12/29 10:54:45;;;;;;;1.87;1.30;;;10.50;99.90;;;;;;5019284;28;20025;-80
2022/12/29 10:57:35;;;;;;;3.30;1.43;;;10.60;99.90;;;;;;5020998;28;20431;-80
2022/12/29 11:00:00;;;;;;;5.43;1.33;;;10.60;99.90;;;;;;5023407;28;20022;-80
2022/12/29 11:02:40;;;;;;;1.80;1.20;;;10.60;99.90;;;;;;5023959;28;20037;-80
2022/12/29 11:05:27;;;;;;;5.90;1.37;;;10.70;99.90;;;;;;5021407;28;20390;-80
2022/12/29 11:08:01;;;;;;;2.67;1.10;;;10.80;99.90;;;;;;5024662;28;20017;-80
2022/12/29 11:10:32;;;;;;;3.27;1.20;;;10.90;99.90;;;;;;5024471;28;20029;-80
2022/12/29 11:13:01;;;;;;;3.50;1.30;;;11.00;99.90;;;;;;5023002;28;20029;-80
2022/12/29 11:15:27;;;;;;;4.67;1.20;;;11.10;99.90;;;;;;5019819;28;20441;-86
2022/12/29 11:17:56;;;;;;;2.10;1.20;;;11.20;99.90;;;;;;5019685;28;20057;-85
2022/12/29 11:20:34;;;;;;;4.40;1.20;;;11.30;99.90;;;;;;5019537;28;20029;-86
2022/12/29 11:23:01;;;;;;;1.83;1.07;;;11.30;99.90;;;;;;5023953;28;20191;-86
2022/12/29 11:25:27;;;;;;;3.07;1.10;;;11.40;99.90;;;;;;5020767;28;20109;-86
2022/12/29 11:27:57;;;;;;;2.95;1.50;;;11.40;99.90;;;;;;5020827;28;20688;-86
2022/12/29 11:30:25;;;;;;;2.90;1.30;;;11.40;99.90;;;;;;5019543;28;20033;-86
2022/12/29 11:32:55;;;;;;;2.50;1.33;;;11.40;99.90;;;;;;5018366;28;20052;-86
2022/12/29 11:35:34;;;;;;;3.10;1.10;;;11.40;99.90;;;;;;5022639;28;20834;-86
2022/12/29 11:38:01;;;;;;;1.47;1.00;;;11.50;99.90;;;;;;5018853;28;20022;-86
2022/12/29 11:40:27;;;;;;;3.80;1.40;;;11.60;99.90;;;;;;5022537;28;20109;-82
2022/12/29 11:42:55;;;;;;;2.60;1.20;;;11.60;99.90;;;;;;5026600;28;20068;-82
2022/12/29 11:45:33;;;;;;;4.63;1.20;;;11.80;99.90;;;;;;5023342;28;20048;-83
2022/12/29 11:48:09;;;;;;;4.37;1.20;;;11.90;99.90;;;;;;5019732;28;20018;-83
2022/12/29 11:50:39;;;;;;;6.50;1.42;;;12.00;99.90;;;;;;5025490;28;20026;-82
2022/12/29 11:53:44;;;;;;;2.78;1.25;;;12.10;99.90;;;;;;5026147;28;20498;-83
2022/12/29 11:56:14;;;;;;;2.72;1.40;;;12.20;99.90;;;;;;5024717;28;20017;-83
2022/12/29 11:58:41;;;;;;;2.60;1.05;;;12.30;99.90;;;;;;5025293;28;20026;-83
2022/12/29 12:01:19;;;;;;;2.10;1.17;;;12.40;99.90;;;;;;5024165;28;20029;-82
2022/12/29 12:04:00;;;;;;;2.83;1.30;;;12.50;99.90;;;;;;5025138;28;20017;-82
2022/12/29 12:06:29;;;;;;;4.55;1.63;;;12.50;99.90;;;;;;5021388;28;20025;-82
2022/12/29 12:08:59;;;;;;;3.17;1.30;;;12.50;99.90;;;;;;5027145;28;20026;-83
2022/12/29 12:11:36;;;;;;;1.45;1.02;;;12.60;99.90;;;;;;5026572;28;20034;-83
2022/12/29 12:14:12;;;;;;;3.17;1.10;;;12.70;99.90;;;;;;5024333;28;20033;-82
2022/12/29 12:16:48;;;;;;;3.25;1.30;;;12.80;99.90;;;;;;5023767;28;20013;-83
2022/12/29 12:19:40;;;;;;;4.55;1.33;;;12.80;99.90;;;;;;5020706;28;20038;-83
2022/12/29 12:22:37;;;;;;;2.10;1.25;;;12.70;99.90;;;;;;5021551;28;20024;-83
2022/12/29 12:25:11;;;;;;;1.83;1.08;;;12.80;99.90;;;;;;5021285;28;20041;-82
2022/12/29 12:28:13;;;;;;;1.98;1.10;;;12.80;99.90;;;;;;5023269;28;20026;-83
2022/12/29 12:30:45;;;;;;;2.60;1.05;;;12.80;99.90;;;;;;5022318;28;20073;-83
2022/12/29 12:33:28;;;;;;;2.10;1.10;;;12.90;99.90;;;;;;5025621;28;20100;-81
2022/12/29 12:36:23;;;;;;;4.63;1.48;;;12.80;99.90;;;;;;5021534;28;20045;-82
2022/12/29 12:39:11;;;;;;;3.80;1.10;;;12.90;99.90;;;;;;5023159;28;20029;-82
2022/12/29 12:41:51;;;;;;;1.90;0.80;;;12.90;99.90;;;;;;5021966;28;20033;-82
2022/12/29 12:44:39;;;;;;;2.10;1.20;;;12.80;99.90;;;;;;5021946;28;20026;-82
2022/12/29 12:47:40;;;;;;;1.90;1.20;;;12.80;99.90;;;;;;5024960;28;20451;-82
2022/12/29 12:50:51;;;;;;;3.28;1.10;;;12.70;99.90;;;;;;5002677;28;20042;-82
2022/12/29 12:53:44;;;;;;;2.20;1.20;;;12.60;99.90;;;;;;5023293;28;20100;-82
2022/12/29 12:56:36;;;;;;;2.55;1.13;;;12.50;99.90;;;;;;5024001;28;20025;-82
2022/12/29 12:59:39;;;;;;;2.55;1.20;;;12.40;99.90;;;;;;5021316;28;20040;-83
2022/12/29 13:02:41;;;;;;;3.33;1.50;;;12.30;99.90;;;;;;5024106;28;20079;-83
2022/12/29 13:05:21;;;;;;;2.55;1.33;;;12.30;99.90;;;;;;5023600;28;20351;-83
2022/12/29 13:08:23;;;;;;;2.20;1.13;;;12.20;99.90;;;;;;5023337;28;20034;-82
2022/12/29 13:11:07;;;;;;;2.90;1.20;;;12.20;99.90;;;;;;5021178;28;20086;-82
2022/12/29 13:13:39;;;;;;;3.13;1.35;;;12.20;99.90;;;;;;5023642;28;20418;-83
2022/12/29 13:16:25;;;;;;;1.90;1.27;;;12.10;99.90;;;;;;5021320;28;20071;-83
2022/12/29 13:19:06;;;;;;;2.55;1.30;;;12.10;99.90;;;;;;5020205;28;20044;-82
2022/12/29 13:21:46;;;;;;;3.92;1.40;;;12.00;99.90;;;;;;5024706;28;20497;-82
2022/12/29 13:24:28;;;;;;;2.45;1.40;;;12.00;99.90;;;;;;5023527;28;21476;-82
2022/12/29 13:27:10;;;;;;;3.28;1.20;;;12.00;99.90;;;;;;5028472;28;20030;-83
2022/12/29 13:29:50;;;;;;;3.17;1.40;;;12.00;99.90;;;;;;5023286;28;20426;-83
2022/12/29 13:32:43;;;;;;;3.30;1.40;;;12.00;99.90;;;;;;5020363;28;20124;-82
2022/12/29 13:35:20;;;;;;;3.65;1.60;;;11.90;99.90;;;;;;5020091;28;20024;-82
2022/12/29 13:37:52;;;;;;;2.17;1.33;;;11.90;99.90;;;;;;5020254;28;20111;-83
2022/12/29 13:40:24;;;;;;;3.47;1.23;;;11.80;99.90;;;;;;5018964;28;20017;-82
2022/12/29 13:42:53;;;;;;;1.83;1.20;;;11.80;99.90;;;;;;5023674;28;20027;-83
2022/12/29 13:45:24;;;;;;;2.83;1.25;;;11.80;99.90;;;;;;5020742;28;20018;-83
2022/12/29 13:48:19;;;;;;;2.53;1.20;;;11.90;99.90;;;;;;5023957;28;20057;-83
2022/12/29 13:50:56;;;;;;;2.17;1.17;;;11.90;99.90;;;;;;5021983;28;20101;-83